Time;durP1;ratioP1;P1;durP2;ratioP2;P2;SDS_P1;SDS_P2;PMS_P1;PMS_P2;Temp;Humidity;BMP_temperature;BMP_pressure;BME280_temperature;BME280_humidity;BME280_pressure;Samples;Min_cycle;Max_cycle;Signal;HPM_P1;HPM_P2
2023/12/20 00:01:39;;;;;;;11.55;7.80;;;7.10;64.40;;;2.07;100.00;95746.44;4941077;28;20097;-53
2023/12/20 00:04:06;;;;;;;11.07;7.70;;;7.10;64.40;;;2.11;100.00;95745.00;4936959;28;20027;-55
2023/12/20 00:06:31;;;;;;;9.73;6.53;;;7.20;65.30;;;2.12;100.00;95751.88;4937437;29;20058;-53
2023/12/20 00:08:57;;;;;;;10.50;6.65;;;7.20;64.50;;;2.15;100.00;95737.50;4936489;28;20134;-54
2023/12/20 00:11:24;;;;;;;11.95;7.57;;;7.20;64.50;;;2.14;100.00;95744.59;4937865;29;20031;-54
2023/12/20 00:13:50;;;;;;;9.93;6.43;;;7.20;64.50;;;2.14;100.00;95751.69;4936070;29;20023;-57
2023/12/20 00:16:16;;;;;;;10.02;6.32;;;7.10;64.40;;;2.16;100.00;95741.75;4937122;29;20030;-57
2023/12/20 00:18:42;;;;;;;12.35;7.80;;;7.20;64.50;;;2.17;100.00;95743.38;4937156;29;20389;-57
2023/12/20 00:21:08;;;;;;;10.63;7.47;;;7.20;64.60;;;2.15;100.00;95729.63;4935195;28;20556;-53
2023/12/20 00:23:34;;;;;;;12.85;7.65;;;7.20;64.50;;;2.11;100.00;95707.41;4935846;28;20030;-55
2023/12/20 00:25:59;;;;;;;9.98;7.00;;;7.20;64.50;;;2.09;100.00;95687.38;4935662;29;20078;-56
2023/12/20 00:28:25;;;;;;;10.43;7.13;;;7.20;64.50;;;2.12;100.00;95701.13;4936829;29;20102;-57
2023/12/20 00:30:51;;;;;;;11.75;7.25;;;7.20;64.50;;;2.11;100.00;95704.78;4936603;29;20035;-57
2023/12/20 00:33:17;;;;;;;10.50;6.78;;;7.20;64.50;;;2.09;100.00;95704.97;4933719;29;20089;-58
2023/12/20 00:35:43;;;;;;;10.82;7.00;;;7.20;64.50;;;2.07;100.00;95692.06;4936095;29;20029;-55
2023/12/20 00:38:09;;;;;;;11.55;7.88;;;7.20;64.60;;;2.07;100.00;95699.94;4928606;29;20031;-49
2023/12/20 00:40:35;;;;;;;10.98;6.53;;;7.20;64.60;;;2.05;100.00;95693.28;4932290;28;20614;-50
2023/12/20 00:43:01;;;;;;;9.40;6.72;;;7.20;64.70;;;2.04;100.00;95681.97;4932154;29;20054;-52
2023/12/20 00:45:27;;;;;;;10.63;7.10;;;7.20;64.70;;;2.03;100.00;95674.28;4930153;29;20069;-49
2023/12/20 00:47:53;;;;;;;11.18;7.13;;;7.20;64.70;;;2.04;100.00;95683.78;4932126;29;20027;-49
2023/12/20 00:50:18;;;;;;;11.52;7.53;;;7.20;65.50;;;2.04;100.00;95674.09;4929649;29;20101;-54
2023/12/20 00:52:44;;;;;;;10.48;7.00;;;7.20;64.80;;;2.04;100.00;95681.16;4935509;29;20035;-51
2023/12/20 00:55:10;;;;;;;10.65;7.28;;;7.20;64.80;;;2.00;100.00;95678.13;4935109;29;20027;-50
2023/12/20 00:57:36;;;;;;;10.45;7.10;;;7.20;64.80;;;2.02;100.00;95681.34;4934548;29;20035;-51
2023/12/20 01:00:02;;;;;;;11.10;7.30;;;7.20;64.80;;;2.02;100.00;95677.94;4935808;28;20054;-48
2023/12/20 01:02:29;;;;;;;12.43;6.97;;;7.20;64.90;;;2.03;100.00;95671.66;4939892;28;20031;-52
2023/12/20 01:04:54;;;;;;;11.63;7.35;;;7.20;64.80;;;2.00;100.00;95685.19;4934789;28;20362;-50
2023/12/20 01:07:21;;;;;;;12.52;7.60;;;7.20;64.80;;;1.97;100.00;95672.47;4935512;29;20110;-51
2023/12/20 01:09:46;;;;;;;13.25;7.43;;;7.20;64.90;;;1.92;100.00;95678.38;4934668;29;20464;-50
2023/12/20 01:12:12;;;;;;;11.93;7.82;;;7.20;64.90;;;1.91;100.00;95671.47;4935549;29;20037;-50
2023/12/20 01:14:39;;;;;;;12.85;7.78;;;7.10;64.90;;;1.91;100.00;95682.00;4933957;29;20457;-52
2023/12/20 01:17:05;;;;;;;12.15;7.75;;;7.10;64.90;;;1.89;100.00;95678.78;4935506;29;20035;-53
2023/12/20 01:19:31;;;;;;;12.27;8.02;;;7.10;65.00;;;1.85;100.00;95683.66;4933036;29;20026;-49
2023/12/20 01:21:57;;;;;;;13.65;7.85;;;7.00;65.10;;;1.85;100.00;95690.72;4931874;28;20039;-50
2023/12/20 01:24:22;;;;;;;12.07;8.00;;;7.00;65.20;;;1.85;100.00;95691.53;4934546;29;20031;-51
2023/12/20 01:26:49;;;;;;;12.48;8.13;;;7.00;65.30;;;1.89;100.00;95693.75;4934493;28;20031;-53
2023/12/20 01:29:15;;;;;;;10.68;7.30;;;7.00;65.50;;;1.92;100.00;95695.97;4935370;29;20030;-49
2023/12/20 01:31:41;;;;;;;11.68;7.85;;;7.00;65.60;;;1.96;100.00;95691.91;4934432;28;20418;-51
2023/12/20 01:34:07;;;;;;;12.02;7.82;;;7.00;65.70;;;2.01;100.00;95686.84;4934069;29;20089;-50
2023/12/20 01:36:33;;;;;;;12.07;7.95;;;7.00;65.80;;;2.02;100.00;95689.25;4935059;29;20069;-49
2023/12/20 01:38:59;;;;;;;12.88;7.97;;;7.10;65.80;;;2.03;100.00;95695.28;4934126;29;20042;-48
2023/12/20 01:41:25;;;;;;;12.80;7.68;;;7.10;65.80;;;2.03;100.00;95703.19;4935004;29;20023;-51
2023/12/20 01:43:52;;;;;;;15.77;8.20;;;7.10;65.70;;;2.03;100.00;95703.97;4936431;28;20082;-48
2023/12/20 01:46:20;;;;;;;12.52;7.88;;;7.20;65.80;;;2.05;100.00;95703.78;4934763;29;20558;-53
2023/12/20 01:48:48;;;;;;;11.82;8.20;;;7.20;65.80;;;2.04;100.00;95700.34;4934706;29;20031;-52
2023/12/20 01:51:15;;;;;;;13.70;7.75;;;7.20;65.80;;;2.07;100.00;95697.31;4934015;29;20055;-51
2023/12/20 01:53:43;;;;;;;10.57;7.70;;;7.30;65.80;;;2.12;100.00;95698.50;4934257;29;20038;-49
2023/12/20 01:56:11;;;;;;;12.43;7.80;;;7.30;65.90;;;2.13;100.00;95697.47;4933598;29;20039;-48
2023/12/20 01:58:45;;;;;;;14.68;7.93;;;7.30;65.90;;;2.18;100.00;95692.41;4933585;29;20393;-49
2023/12/20 02:01:13;;;;;;;11.15;7.55;;;7.30;65.90;;;2.19;100.00;95699.28;4937607;28;20118;-51
2023/12/20 02:03:42;;;;;;;10.98;7.38;;;7.40;65.90;;;2.25;100.00;95701.06;4935380;29;20027;-51
2023/12/20 02:06:09;;;;;;;10.27;7.32;;;7.40;65.80;;;2.29;100.00;95700.47;4933287;29;20603;-48
2023/12/20 02:08:36;;;;;;;11.68;6.82;;;7.40;65.80;;;2.34;100.00;95704.28;4947993;28;20054;-53
2023/12/20 02:11:02;;;;;;;12.27;7.72;;;7.50;65.90;;;2.40;100.00;95703.44;4934147;29;20031;-50
2023/12/20 02:13:28;;;;;;;12.07;7.95;;;7.50;65.90;;;2.40;100.00;95700.81;4933762;29;20606;-49
2023/12/20 02:15:55;;;;;;;11.07;7.35;;;7.50;65.90;;;2.44;100.00;95702.78;4933433;29;20035;-49
2023/12/20 02:18:22;;;;;;;11.85;7.88;;;7.50;65.90;;;2.47;100.00;95702.38;4931776;29;20037;-49
2023/12/20 02:20:48;;;;;;;11.30;8.15;;;7.50;65.90;;;2.46;100.00;95706.03;4933212;29;20050;-49
2023/12/20 02:23:13;;;;;;;10.35;7.32;;;7.60;65.90;;;2.51;100.00;95700.94;4934181;29;20046;-51
2023/12/20 02:25:39;;;;;;;9.32;6.80;;;7.60;65.90;;;2.53;100.00;95701.53;4932776;29;20051;-52
2023/12/20 02:28:06;;;;;;;10.55;7.50;;;7.60;65.90;;;2.52;100.00;95685.97;4934622;29;20033;-48
2023/12/20 02:30:32;;;;;;;11.90;8.05;;;7.60;66.00;;;2.59;100.00;95689.38;4933773;28;20031;-48
2023/12/20 02:33:03;;;;;;;13.13;7.93;;;7.60;65.90;;;2.58;100.00;95679.88;4933142;28;20034;-48
2023/12/20 02:35:29;;;;;;;12.50;7.80;;;7.60;65.90;;;2.59;100.00;95678.84;4933463;29;20027;-48
2023/12/20 02:37:55;;;;;;;13.38;7.35;;;7.70;66.00;;;2.61;100.00;95678.66;4933121;29;20035;-48
2023/12/20 02:40:21;;;;;;;12.20;7.97;;;7.70;66.10;;;2.63;100.00;95677.41;4931190;28;20047;-54
2023/12/20 02:42:46;;;;;;;10.82;7.78;;;7.70;66.00;;;2.61;100.00;95681.28;4948815;28;20074;-49
2023/12/20 02:45:12;;;;;;;12.38;8.30;;;7.70;66.00;;;2.61;100.00;95686.53;4931498;29;20031;-52
2023/12/20 02:47:38;;;;;;;11.88;8.38;;;7.70;66.10;;;2.65;100.00;95699.03;4934077;29;20751;-51
2023/12/20 02:50:04;;;;;;;12.23;7.20;;;7.70;66.20;;;2.65;100.00;95706.94;4933016;28;20031;-52
2023/12/20 02:52:30;;;;;;;10.57;7.57;;;7.70;66.30;;;2.63;100.00;95702.91;4933879;29;20090;-49
2023/12/20 02:54:56;;;;;;;11.13;8.13;;;7.70;66.30;;;2.63;100.00;95695.00;4934208;29;20038;-49
2023/12/20 02:57:22;;;;;;;15.55;9.63;;;7.60;66.40;;;2.59;100.00;95694.63;4935170;28;20061;-49
2023/12/20 02:59:48;;;;;;;13.30;9.05;;;7.60;66.50;;;2.56;100.00;95692.41;4934677;28;20097;-49
2023/12/20 03:02:13;;;;;;;14.93;9.35;;;7.50;66.60;;;2.56;100.00;95689.78;4935818;28;20063;-52
2023/12/20 03:04:39;;;;;;;19.85;11.15;;;7.50;66.60;;;2.55;100.00;95690.81;4933034;29;20058;-48
2023/12/20 03:07:05;;;;;;;19.35;11.10;;;7.50;66.80;;;2.53;100.00;95696.28;4933791;29;20031;-49
2023/12/20 03:09:31;;;;;;;17.48;9.82;;;7.50;67.00;;;2.54;100.00;95687.38;4932371;29;20054;-48
2023/12/20 03:11:56;;;;;;;15.65;10.43;;;7.40;67.10;;;2.54;100.00;95687.38;4932960;28;20070;-51
2023/12/20 03:14:22;;;;;;;14.80;9.88;;;7.40;67.30;;;2.52;100.00;95683.34;4931881;28;20031;-48
2023/12/20 03:16:51;;;;;;;15.20;9.88;;;7.40;67.30;;;2.55;100.00;95702.13;4933772;29;20038;-53
2023/12/20 03:19:19;;;;;;;15.35;9.70;;;7.40;67.60;;;2.50;100.00;95704.59;4933661;28;20423;-48
2023/12/20 03:21:45;;;;;;;18.05;9.95;;;7.40;67.70;;;2.51;100.00;95708.03;4932166;29;20082;-51
2023/12/20 03:24:11;;;;;;;16.15;10.43;;;7.40;67.80;;;2.54;100.00;95708.41;4932851;28;20031;-49
2023/12/20 03:26:37;;;;;;;15.52;9.90;;;7.40;67.90;;;2.50;100.00;95694.06;4931945;29;20037;-56
2023/12/20 03:29:03;;;;;;;17.85;10.65;;;7.40;68.10;;;2.48;100.00;95684.78;4933383;29;20022;-51
2023/12/20 03:31:28;;;;;;;16.92;10.82;;;7.40;68.10;;;2.44;100.00;95694.91;4932901;29;20027;-48
2023/12/20 03:33:54;;;;;;;17.90;10.10;;;7.30;68.90;;;2.43;100.00;95682.78;4932113;29;20058;-48
2023/12/20 03:36:21;;;;;;;17.65;10.93;;;7.40;68.40;;;2.41;100.00;95687.44;4933306;28;20027;-49
2023/12/20 03:38:46;;;;;;;18.10;10.85;;;7.30;68.40;;;2.45;100.00;95690.47;4932138;29;20019;-52
2023/12/20 03:41:13;;;;;;;15.63;10.13;;;7.30;68.60;;;2.45;100.00;95693.09;4932475;29;20081;-54
2023/12/20 03:43:39;;;;;;;20.20;11.98;;;7.30;68.60;;;2.46;100.00;95700.75;4932824;28;20037;-56
2023/12/20 03:46:04;;;;;;;16.85;10.80;;;7.30;68.70;;;2.51;100.00;95714.09;4933505;28;20386;-52
2023/12/20 03:48:33;;;;;;;18.35;10.63;;;7.30;68.80;;;2.47;100.00;95715.53;4930170;28;20061;-52
2023/12/20 03:50:59;;;;;;;20.27;10.88;;;7.30;69.00;;;2.47;100.00;95712.88;4931778;29;20553;-48
2023/12/20 03:53:27;;;;;;;21.33;11.57;;;7.30;69.00;;;2.49;100.00;95710.88;4932559;29;20137;-48
2023/12/20 03:55:53;;;;;;;18.83;11.20;;;7.40;69.10;;;2.52;100.00;95709.66;4932645;28;20023;-50
2023/12/20 03:58:18;;;;;;;20.38;12.15;;;7.40;69.20;;;2.53;100.00;95714.69;4933321;28;20102;-53
2023/12/20 04:00:44;;;;;;;18.17;12.02;;;7.40;69.30;;;2.54;100.00;95712.88;4934474;28;20541;-48
2023/12/20 04:03:13;;;;;;;18.05;10.98;;;7.40;69.30;;;2.54;100.00;95711.06;4933029;28;20026;-48
2023/12/20 04:05:40;;;;;;;23.80;11.88;;;7.40;69.30;;;2.58;100.00;95713.25;4932705;29;20742;-48
2023/12/20 04:08:09;;;;;;;18.58;11.63;;;7.40;69.50;;;2.58;100.00;95716.69;4931667;29;20030;-50
2023/12/20 04:10:34;;;;;;;18.35;11.73;;;7.40;69.50;;;2.60;100.00;95713.84;4931885;29;20055;-48
2023/12/20 04:13:00;;;;;;;18.27;11.43;;;7.40;69.60;;;2.58;100.00;95719.31;4932642;29;20105;-52
2023/12/20 04:15:26;;;;;;;21.27;12.05;;;7.40;69.60;;;2.63;100.00;95719.47;4928039;29;20086;-51
2023/12/20 04:17:52;;;;;;;18.25;11.18;;;7.50;69.80;;;2.62;100.00;95724.97;4931026;29;20105;-50
2023/12/20 04:20:18;;;;;;;21.42;12.15;;;7.50;69.80;;;2.62;100.00;95730.22;4932651;28;20180;-50
2023/12/20 04:22:44;;;;;;;22.42;12.27;;;7.50;69.80;;;2.62;100.00;95736.28;4932370;29;20038;-52
2023/12/20 04:25:10;;;;;;;19.40;12.45;;;7.50;69.80;;;2.63;100.00;95727.38;4960460;23;20053;-52
2023/12/20 04:27:35;;;;;;;19.17;12.57;;;7.50;69.90;;;2.67;100.00;95730.41;4973563;28;20022;-51
2023/12/20 04:30:01;;;;;;;21.73;12.45;;;7.60;69.90;;;2.69;100.00;95733.63;4972154;28;20026;-54
2023/12/20 04:32:27;;;;;;;21.20;12.68;;;7.60;70.00;;;2.67;100.00;95730.41;4971301;28;20035;-52
2023/12/20 04:34:53;;;;;;;23.35;12.73;;;7.60;70.00;;;2.69;100.00;95731.78;4971852;28;20079;-52
2023/12/20 04:37:18;;;;;;;18.33;12.10;;;7.60;70.10;;;2.72;100.00;95743.72;4971704;28;20018;-54
2023/12/20 04:39:44;;;;;;;22.20;13.27;;;7.60;70.10;;;2.72;100.00;95749.78;4974108;28;20480;-55
2023/12/20 04:42:10;;;;;;;21.92;12.38;;;7.60;70.20;;;2.73;100.00;95748.78;4972743;28;20033;-51
2023/12/20 04:44:36;;;;;;;21.23;12.73;;;7.60;70.30;;;2.76;100.00;95747.56;4971606;28;20105;-53
2023/12/20 04:47:03;;;;;;;19.58;12.05;;;7.60;70.40;;;2.79;100.00;95749.78;4973172;28;20428;-53
2023/12/20 04:49:29;;;;;;;19.65;12.18;;;7.60;71.20;;;2.79;100.00;95757.66;4970411;28;20025;-51
2023/12/20 04:51:55;;;;;;;25.77;12.68;;;7.60;70.50;;;2.77;100.00;95762.31;4971291;28;20022;-52
2023/12/20 04:54:21;;;;;;;21.38;12.82;;;7.60;70.60;;;2.81;100.00;95754.81;4971176;28;20025;-53
2023/12/20 04:56:47;;;;;;;21.25;11.77;;;7.70;70.70;;;2.83;100.00;95752.78;4969297;28;20117;-51
2023/12/20 04:59:13;;;;;;;23.90;12.90;;;7.70;70.70;;;2.84;100.00;95749.13;4972088;28;20487;-51
2023/12/20 05:01:39;;;;;;;22.17;13.70;;;7.60;70.70;;;2.85;100.00;95753.34;4967535;28;20116;-53
2023/12/20 05:04:05;;;;;;;21.30;13.05;;;7.70;70.80;;;2.88;100.00;95752.94;4968889;28;20101;-52
2023/12/20 05:06:31;;;;;;;21.42;13.68;;;7.70;70.90;;;2.90;100.00;95764.06;4971110;28;20169;-50
2023/12/20 05:08:56;;;;;;;24.73;13.88;;;7.70;71.00;;;2.90;100.00;95762.22;4970120;28;20088;-51
2023/12/20 05:11:22;;;;;;;24.33;13.52;;;7.70;71.00;;;2.94;100.00;95766.03;4971554;28;20038;-53
2023/12/20 05:13:48;;;;;;;22.42;13.90;;;7.70;71.10;;;2.95;100.00;95759.78;4969279;28;20214;-50
2023/12/20 05:16:14;;;;;;;22.40;13.30;;;7.70;71.10;;;2.93;100.00;95763.63;4971934;28;20083;-52
2023/12/20 05:18:40;;;;;;;24.27;13.52;;;7.70;71.20;;;2.97;100.00;95764.81;4971078;28;20052;-55
2023/12/20 05:21:07;;;;;;;24.60;14.18;;;7.80;71.30;;;3.00;100.00;95757.31;4969605;28;20437;-53
2023/12/20 05:23:32;;;;;;;23.40;13.85;;;7.80;71.30;;;3.02;100.00;95765.00;4984422;28;20481;-53
2023/12/20 05:25:59;;;;;;;23.00;13.90;;;7.80;71.30;;;3.06;100.00;95768.00;4969233;28;20049;-55
2023/12/20 05:28:25;;;;;;;21.55;14.02;;;7.80;71.40;;;3.06;100.00;95768.00;4971459;28;20018;-55
2023/12/20 05:30:51;;;;;;;20.23;12.68;;;7.80;71.40;;;3.07;100.00;95765.19;4972597;28;20022;-52
2023/12/20 05:33:17;;;;;;;37.17;13.35;;;7.80;71.40;;;3.09;100.00;95775.47;4972430;28;20212;-55
2023/12/20 05:35:43;;;;;;;24.33;13.27;;;7.90;71.50;;;3.10;100.00;95774.44;4988427;28;20476;-52
2023/12/20 05:38:09;;;;;;;28.17;13.98;;;7.90;71.40;;;3.11;100.00;95774.25;4972001;28;20489;-53
2023/12/20 05:40:35;;;;;;;23.73;13.65;;;7.90;71.50;;;3.15;100.00;95785.16;4974980;28;20029;-52
2023/12/20 05:43:01;;;;;;;26.80;14.50;;;7.90;71.50;;;3.13;100.00;95787.19;4990509;28;20120;-57
2023/12/20 05:45:27;;;;;;;21.92;13.63;;;8.00;71.60;;;3.13;100.00;95797.72;4973468;28;20061;-54
2023/12/20 05:47:52;;;;;;;23.58;14.48;;;8.00;71.60;;;3.14;100.00;95800.16;4974558;28;20469;-54
2023/12/20 05:50:18;;;;;;;23.48;14.57;;;8.00;71.70;;;3.18;100.00;95798.69;4973158;28;20026;-54
2023/12/20 05:52:44;;;;;;;26.50;13.88;;;8.00;71.70;;;3.18;100.00;95796.06;4975116;28;20045;-56
2023/12/20 05:55:10;;;;;;;22.15;12.82;;;8.00;71.70;;;3.20;100.00;95783.50;4973717;28;20025;-56
2023/12/20 05:57:36;;;;;;;27.08;13.65;;;8.00;71.70;;;3.21;100.00;95782.47;4973518;28;20026;-56
2023/12/20 06:00:02;;;;;;;22.67;13.38;;;8.00;71.80;;;3.23;100.00;95788.34;4976534;28;20481;-53
2023/12/20 06:02:29;;;;;;;27.42;13.57;;;8.10;71.80;;;3.19;100.00;95787.16;4973769;28;20029;-55
2023/12/20 06:04:54;;;;;;;23.38;13.13;;;8.10;71.80;;;3.25;100.00;95781.03;4974977;28;20026;-53
2023/12/20 06:07:21;;;;;;;21.05;13.68;;;8.10;71.80;;;3.25;100.00;95788.13;4974553;28;20046;-57
2023/12/20 06:09:46;;;;;;;24.90;14.15;;;8.10;71.90;;;3.27;100.00;95801.09;4970551;28;20022;-57
2023/12/20 06:12:12;;;;;;;25.00;14.43;;;8.10;71.90;;;3.30;100.00;95801.47;4974207;28;20045;-54
2023/12/20 06:14:38;;;;;;;21.67;12.93;;;8.10;72.00;;;3.33;100.00;95803.69;4972503;28;20146;-56
2023/12/20 06:17:04;;;;;;;23.33;13.77;;;8.10;72.10;;;3.35;100.00;95803.44;4975914;28;20026;-53
2023/12/20 06:19:30;;;;;;;29.13;13.98;;;8.10;72.10;;;3.36;100.00;95797.19;4973942;28;20032;-57
2023/12/20 06:21:55;;;;;;;25.38;14.25;;;8.10;72.10;;;3.38;100.00;95797.75;4974472;28;20037;-58
2023/12/20 06:24:21;;;;;;;23.42;13.00;;;8.20;72.20;;;3.40;100.00;95809.69;4973643;28;20010;-57
2023/12/20 06:26:47;;;;;;;22.27;12.88;;;8.20;72.30;;;3.41;100.00;95805.22;4974542;28;20449;-57
2023/12/20 06:29:13;;;;;;;36.80;13.68;;;8.20;72.30;;;3.42;100.00;95797.13;4989538;28;20129;-52
2023/12/20 06:31:39;;;;;;;50.17;13.75;;;8.30;72.30;;;3.45;100.00;95809.88;4974733;28;20038;-58
2023/12/20 06:34:04;;;;;;;24.55;13.68;;;8.30;73.10;;;3.47;100.00;95809.63;4977824;28;20048;-55
2023/12/20 06:36:30;;;;;;;34.70;13.63;;;8.30;72.40;;;3.51;100.00;95813.47;4974411;28;20030;-54
2023/12/20 06:38:56;;;;;;;26.88;14.23;;;8.30;72.50;;;3.54;100.00;95815.69;4975491;28;20022;-51
2023/12/20 06:41:24;;;;;;;85.97;16.10;;;8.30;72.50;;;3.57;100.00;95817.88;4975158;28;20104;-57
2023/12/20 06:43:51;;;;;;;25.50;13.45;;;8.40;72.60;;;3.57;100.00;95817.88;4973436;28;20467;-57
2023/12/20 06:46:17;;;;;;;22.98;12.80;;;8.40;72.60;;;3.56;100.00;95818.91;4974004;28;20036;-54
2023/12/20 06:48:43;;;;;;;23.65;13.10;;;8.40;72.60;;;3.59;100.00;95817.66;4971353;28;20034;-52
2023/12/20 06:51:15;;;;;;;22.70;11.77;;;8.40;72.70;;;3.59;100.00;95820.28;4973364;28;20030;-57
2023/12/20 06:53:42;;;;;;;35.30;14.57;;;8.40;73.60;;;3.63;100.00;95830.19;4984419;28;20251;-56
2023/12/20 06:56:10;;;;;;;21.83;12.18;;;8.40;72.80;;;3.65;100.00;95835.25;4986200;28;20081;-53
2023/12/20 06:58:37;;;;;;;19.95;11.18;;;8.40;72.90;;;3.66;100.00;95829.75;4989181;28;20080;-56
2023/12/20 07:01:04;;;;;;;29.08;12.27;;;8.40;72.90;;;3.66;100.00;95826.31;4972497;28;20030;-54
2023/12/20 07:03:30;;;;;;;34.00;13.20;;;8.40;73.00;;;3.68;100.00;95833.00;4970910;28;20056;-53
2023/12/20 07:05:56;;;;;;;23.70;11.63;;;8.40;73.00;;;3.70;100.00;95838.84;4971226;28;20367;-54
2023/12/20 07:08:21;;;;;;;36.25;12.93;;;8.40;73.10;;;3.76;100.00;95831.94;4970570;28;20022;-57
2023/12/20 07:10:47;;;;;;;36.75;13.52;;;8.50;73.10;;;3.77;100.00;95833.53;4971617;28;20049;-54
2023/12/20 07:13:13;;;;;;;21.63;12.55;;;8.50;73.20;;;3.77;100.00;95830.09;4971830;28;20017;-55
2023/12/20 07:15:40;;;;;;;49.03;15.27;;;8.50;73.20;;;3.78;100.00;95836.97;4969138;28;20088;-56
2023/12/20 07:18:07;;;;;;;46.22;14.40;;;8.50;73.20;;;3.81;100.00;95829.44;4970383;28;20551;-57
2023/12/20 07:20:33;;;;;;;64.93;14.27;;;8.60;73.30;;;3.81;100.00;95834.72;4965613;28;20068;-55
2023/12/20 07:22:59;;;;;;;22.48;12.30;;;8.60;73.30;;;3.82;100.00;95838.94;4972400;28;20109;-50
2023/12/20 07:25:25;;;;;;;102.68;16.77;;;8.60;73.30;;;3.83;100.00;95842.41;4970829;28;20030;-55
2023/12/20 07:27:51;;;;;;;62.30;15.15;;;8.60;73.30;;;3.82;100.00;95841.59;4970531;28;20026;-55
2023/12/20 07:30:17;;;;;;;89.00;16.77;;;8.60;73.40;;;3.83;100.00;95837.16;4971457;28;20032;-55
2023/12/20 07:32:43;;;;;;;23.13;13.10;;;8.60;73.40;;;3.85;100.00;95841.16;4968485;28;20130;-55
2023/12/20 07:35:08;;;;;;;39.13;14.52;;;8.60;73.40;;;3.87;100.00;95849.66;4969873;28;20141;-51
2023/12/20 07:37:34;;;;;;;29.23;13.35;;;8.60;73.40;;;3.91;100.00;95850.03;4971526;28;20105;-54
2023/12/20 07:40:00;;;;;;;44.80;15.52;;;8.60;73.50;;;3.94;100.00;95852.22;4968887;28;20104;-55
2023/12/20 07:42:26;;;;;;;22.23;13.07;;;8.60;73.50;;;3.92;100.00;95849.03;4967979;28;20022;-51
2023/12/20 07:44:52;;;;;;;38.70;14.18;;;8.70;73.50;;;3.94;100.00;95846.97;4968406;28;20026;-53
2023/12/20 07:47:21;;;;;;;27.63;13.98;;;8.70;73.50;;;3.91;100.00;95848.19;4966851;28;20468;-51
2023/12/20 07:49:51;;;;;;;24.70;12.57;;;8.70;73.50;;;3.96;100.00;95859.94;4967934;28;20105;-52
2023/12/20 07:52:22;;;;;;;25.45;13.95;;;8.70;73.60;;;3.97;100.00;95867.63;4968375;28;20034;-54
2023/12/20 07:54:48;;;;;;;35.25;13.75;;;8.70;73.60;;;3.98;100.00;95871.06;4968314;28;20029;-55
2023/12/20 07:57:14;;;;;;;160.65;19.90;;;8.80;73.70;;;3.99;100.00;95870.06;4965311;28;20424;-52
2023/12/20 07:59:40;;;;;;;86.70;16.00;;;8.80;73.80;;;4.02;100.00;95872.25;4966989;28;20026;-54
2023/12/20 08:02:06;;;;;;;38.55;13.10;;;8.80;73.80;;;3.98;100.00;95865.78;4968737;28;20038;-54
2023/12/20 08:04:32;;;;;;;41.15;13.82;;;8.80;73.90;;;4.00;100.00;95866.38;4969237;28;20022;-52
2023/12/20 08:06:58;;;;;;;26.67;13.40;;;8.80;73.90;;;4.03;100.00;95860.69;4968997;28;20026;-55
2023/12/20 08:09:24;;;;;;;40.45;14.57;;;8.80;73.90;;;4.00;100.00;95874.28;4969295;28;20029;-54
2023/12/20 08:11:50;;;;;;;32.58;14.77;;;8.80;73.90;;;4.04;100.00;95881.56;4968264;28;20038;-52
2023/12/20 08:14:16;;;;;;;48.20;15.30;;;8.90;74.00;;;3.99;100.00;95878.75;4978565;28;20121;-54
2023/12/20 08:16:42;;;;;;;28.25;14.15;;;8.90;74.10;;;4.03;100.00;95879.94;4984558;28;20241;-53
2023/12/20 08:19:08;;;;;;;30.23;14.73;;;8.80;74.00;;;4.07;100.00;95885.59;4971325;28;20176;-53
2023/12/20 08:21:34;;;;;;;24.17;13.70;;;8.80;74.00;;;4.10;100.00;95879.88;4970119;28;20026;-53
2023/12/20 08:24:03;;;;;;;33.25;14.43;;;8.90;74.10;;;4.06;100.00;95884.78;4970957;28;20037;-56
2023/12/20 08:26:29;;;;;;;32.20;14.23;;;8.90;74.20;;;4.11;100.00;95890.22;4969745;28;20042;-53
2023/12/20 08:28:55;;;;;;;39.13;14.75;;;8.90;74.20;;;4.15;100.00;95885.31;4970402;28;20096;-55
2023/12/20 08:31:21;;;;;;;28.77;13.65;;;8.90;74.30;;;4.16;100.00;95890.34;4970460;28;20093;-56
2023/12/20 08:33:49;;;;;;;29.30;14.60;;;9.00;74.30;;;4.18;100.00;95879.63;4969002;28;20088;-51
2023/12/20 08:36:17;;;;;;;36.72;15.02;;;9.00;74.40;;;4.16;100.00;95884.28;4969840;28;20057;-56
2023/12/20 08:38:43;;;;;;;26.30;13.30;;;9.00;74.30;;;4.14;100.00;95884.53;4969529;28;20461;-55
2023/12/20 08:41:09;;;;;;;22.08;13.32;;;9.00;74.30;;;4.16;100.00;95887.72;4967192;28;20045;-54
2023/12/20 08:43:35;;;;;;;24.77;13.00;;;9.00;74.30;;;4.20;100.00;95890.75;4969769;28;20516;-52
2023/12/20 08:46:02;;;;;;;25.33;13.35;;;9.00;74.30;;;4.20;100.00;95888.13;4970048;28;20030;-53
2023/12/20 08:48:29;;;;;;;25.15;13.32;;;9.10;74.40;;;4.24;100.00;95891.13;4970621;28;20124;-55
2023/12/20 08:50:55;;;;;;;30.40;14.43;;;9.00;74.30;;;4.25;100.00;95893.53;4968148;28;20097;-53
2023/12/20 08:53:21;;;;;;;25.35;13.13;;;9.10;74.40;;;4.28;100.00;95898.38;4970127;28;20022;-53
2023/12/20 08:55:47;;;;;;;27.38;14.55;;;9.10;74.50;;;4.30;100.00;95891.06;4969902;28;20026;-53
2023/12/20 08:58:14;;;;;;;25.77;12.40;;;9.10;74.50;;;4.30;100.00;95904.25;4972529;28;20034;-54
2023/12/20 09:00:40;;;;;;;25.83;13.60;;;9.10;74.40;;;4.29;100.00;95886.00;4969309;28;20034;-54
2023/12/20 09:03:06;;;;;;;26.88;13.32;;;9.10;74.40;;;4.29;100.00;95886.00;4969878;28;20029;-53
2023/12/20 09:05:32;;;;;;;22.45;12.68;;;9.10;74.40;;;4.32;100.00;95886.38;4969629;28;20030;-55
2023/12/20 09:07:58;;;;;;;26.25;12.93;;;9.10;74.40;;;4.36;100.00;95889.41;4980678;28;20413;-57
2023/12/20 09:10:24;;;;;;;24.88;13.02;;;9.10;74.40;;;4.37;100.00;95889.16;4968367;28;20018;-52
2023/12/20 09:12:56;;;;;;;27.33;12.68;;;9.20;74.40;;;4.30;100.00;95888.44;4972303;28;20069;-54
2023/12/20 09:15:26;;;;;;;21.50;12.85;;;9.20;74.50;;;4.39;100.00;95894.25;4972444;28;20052;-54
2023/12/20 09:17:53;;;;;;;18.70;12.00;;;9.20;74.50;;;4.35;100.00;95888.56;4973356;28;20038;-53
2023/12/20 09:20:20;;;;;;;21.65;12.60;;;9.20;74.50;;;4.40;100.00;95891.38;4972747;28;20500;-53
2023/12/20 09:22:46;;;;;;;21.10;11.95;;;9.30;74.50;;;4.46;100.00;95892.34;4973685;28;20061;-54
2023/12/20 09:25:13;;;;;;;19.27;11.43;;;9.30;74.60;;;4.45;100.00;95898.66;4972544;28;20156;-56
2023/12/20 09:27:39;;;;;;;21.15;11.48;;;9.30;74.60;;;4.48;100.00;95892.94;4987760;28;20036;-50
2023/12/20 09:30:07;;;;;;;22.83;11.18;;;9.30;74.50;;;4.41;100.00;95887.69;4978959;28;20105;-52
2023/12/20 09:32:33;;;;;;;21.45;11.27;;;9.30;74.50;;;4.44;100.00;95890.94;4972516;28;20061;-50
2023/12/20 09:34:59;;;;;;;21.75;11.20;;;9.30;74.40;;;4.45;100.00;95896.00;4973807;28;20493;-53
2023/12/20 09:37:27;;;;;;;22.48;11.40;;;9.40;74.50;;;4.44;100.00;95901.47;4973407;28;20033;-52
2023/12/20 09:39:54;;;;;;;22.00;11.25;;;9.40;74.50;;;4.51;100.00;95894.31;4972641;28;20113;-50
2023/12/20 09:43:03;;;;;;;19.33;12.02;;;9.40;74.50;;;4.52;100.00;95895.94;4974855;28;20026;-51
2023/12/20 09:45:31;;;;;;;19.02;11.30;;;9.40;74.60;;;4.54;100.00;95896.50;4964950;28;20038;-51
2023/12/20 09:47:58;;;;;;;21.63;11.73;;;9.40;74.60;;;4.55;100.00;95893.66;4972381;28;20069;-54
2023/12/20 09:50:24;;;;;;;24.00;12.23;;;9.40;74.50;;;4.47;100.00;95891.31;4971992;28;20044;-51
2023/12/20 09:52:53;;;;;;;21.48;12.45;;;9.50;74.50;;;4.57;100.00;95893.44;4973146;28;20362;-51
2023/12/20 09:55:21;;;;;;;26.45;12.88;;;9.50;74.50;;;4.63;100.00;95889.91;4973350;28;20029;-53
2023/12/20 09:57:48;;;;;;;25.85;13.45;;;9.60;74.40;;;4.66;100.00;95883.41;4975392;28;20026;-53
2023/12/20 10:00:17;;;;;;;24.17;12.70;;;9.70;74.40;;;4.67;100.00;95891.13;4989894;28;20025;-56
2023/12/20 10:02:57;;;;;;;26.77;13.43;;;9.70;74.30;;;4.68;100.00;95890.06;4986898;28;20030;-52
2023/12/20 10:05:30;;;;;;;24.80;13.35;;;9.80;74.30;;;4.70;100.00;95895.94;4987312;28;20034;-50
2023/12/20 10:07:56;;;;;;;26.83;13.85;;;9.90;74.30;;;4.77;100.00;95895.88;4970722;28;20030;-52
2023/12/20 10:10:22;;;;;;;26.25;14.75;;;9.90;74.20;;;4.80;100.00;95895.44;4975987;28;20574;-51
2023/12/20 10:13:09;;;;;;;24.30;13.85;;;9.90;74.10;;;4.87;100.00;95904.88;4973177;28;20105;-57